Map

Track Data

SID SEASON NUMBER BASIN SUBBASIN NAME ISO_TIME NATURE LAT LON WMO_WIND WMO_PRES WMO_AGENCY TRACK_TYPE DIST2LAND LANDFALL IFLAG USA_AGENCY USA_ATCF_ID USA_LAT USA_LON USA_RECORD USA_STATUS USA_WIND USA_PRES USA_SSHS USA_R34_NE USA_R34_SE USA_R34_SW USA_R34_NW USA_R50_NE USA_R50_SE USA_R50_SW USA_R50_NW USA_R64_NE USA_R64_SE USA_R64_SW USA_R64_NW USA_POCI USA_ROCI USA_RMW USA_EYE TOKYO_LAT TOKYO_LON TOKYO_GRADE TOKYO_WIND TOKYO_PRES TOKYO_R50_DIR TOKYO_R50_LONG TOKYO_R50_SHORT TOKYO_R30_DIR TOKYO_R30_LONG TOKYO_R30_SHORT TOKYO_LAND CMA_LAT CMA_LON CMA_CAT CMA_WIND CMA_PRES HKO_LAT HKO_LON HKO_CAT HKO_WIND HKO_PRES NEWDELHI_LAT NEWDELHI_LON NEWDELHI_GRADE NEWDELHI_WIND NEWDELHI_PRES NEWDELHI_CI NEWDELHI_DP NEWDELHI_POCI REUNION_LAT REUNION_LON REUNION_TYPE REUNION_WIND REUNION_PRES REUNION_TNUM REUNION_CI REUNION_RMW REUNION_R34_NE REUNION_R34_SE REUNION_R34_SW REUNION_R34_NW REUNION_R50_NE REUNION_R50_SE REUNION_R50_SW REUNION_R50_NW REUNION_R64_NE REUNION_R64_SE REUNION_R64_SW REUNION_R64_NW BOM_LAT BOM_LON BOM_TYPE BOM_WIND BOM_PRES BOM_TNUM BOM_CI BOM_RMW BOM_R34_NE BOM_R34_SE BOM_R34_SW BOM_R34_NW BOM_R50_NE BOM_R50_SE BOM_R50_SW BOM_R50_NW BOM_R64_NE BOM_R64_SE BOM_R64_SW BOM_R64_NW BOM_ROCI BOM_POCI BOM_EYE BOM_POS_METHOD BOM_PRES_METHOD NADI_LAT NADI_LON NADI_CAT NADI_WIND NADI_PRES WELLINGTON_LAT WELLINGTON_LON WELLINGTON_WIND WELLINGTON_PRES DS824_LAT DS824_LON DS824_STAGE DS824_WIND DS824_PRES TD9636_LAT TD9636_LON TD9636_STAGE TD9636_WIND TD9636_PRES TD9635_LAT TD9635_LON TD9635_WIND TD9635_PRES TD9635_ROCI NEUMANN_LAT NEUMANN_LON NEUMANN_CLASS NEUMANN_WIND NEUMANN_PRES MLC_LAT MLC_LON MLC_CLASS MLC_WIND MLC_PRES USA_GUST BOM_GUST BOM_GUST_PER REUNION_GUST REUNION_GUST_PER USA_SEAHGT USA_SEARAD_NE USA_SEARAD_SE USA_SEARAD_SW USA_SEARAD_NW STORM_SPEED STORM_DIR
1967096S10096 1967 28 SI WA JACKIE:LAURA 1967-04-05 18:00:00 NR -9.80000 96.0000 main 952 952 O_____________ jtwc_sh SH281967 -9.80000 96.0000 -1 4 255
1967096S10096 1967 28 SI WA JACKIE:LAURA 1967-04-05 21:00:00 NR -9.85002 95.8075 main 975 975 P_____________ SH281967 -9.85002 95.8075 -1 3 242
1967096S10096 1967 28 SI WA JACKIE:LAURA 1967-04-05 22:00:00 NR -9.90001 95.8056 main 975 975 P_________O___ SH281967 -9.86668 95.7408 -1 -10.0000 96.0000 1 30 4 217
1967096S10096 1967 28 SI WA JACKIE:LAURA 1967-04-06 00:00:00 TS -9.99062 95.7016 main 991 991 O________OP___ jtwc_sh SH281967 -9.90000 95.6000 -1 -10.1000 95.8000 TC 25 -10.0625 95.8066 1 28 4 226
1967096S10096 1967 28 SI WA JACKIE:LAURA 1967-04-06 01:00:00 TS -10.0314 95.6687 1003 bom main 991 991 P_____O__PP___ SH281967 -9.91666 95.5250 -1 -10.0000 96.0000 1003 -10.1070 95.6989 TC 24 -10.0939 95.7095 1 27 4 245
1967096S10096 1967 28 SI WA JACKIE:LAURA 1967-04-06 03:00:00 TS -10.0826 95.4980 main 1011 1011 P_____P__PP___ SH281967 -9.94998 95.3650 -1 -10.0632 95.7338 1003 -10.1276 95.4975 TC 22 -10.1577 95.5139 1 25 5 253
1967096S10096 1967 28 SI WA JACKIE:LAURA 1967-04-06 04:00:00 TS -10.1096 95.4084 1003 bom main 1016 1016 P_____O__PP___ SH281967 -9.96665 95.2800 -1 -10.1000 95.6000 1003 -10.1445 95.3975 TC 21 -10.1902 95.4151 1 25 6 252
1967096S10096 1967 28 SI WA JACKIE:LAURA 1967-04-06 06:00:00 TS -10.1661 95.2278 main 1035 1035 O_____P__OP_O_ jtwc_sh SH281967 -10.0000 95.1000 -1 -10.1901 95.3309 1003 -10.2000 95.2000 TC 20 -10.2569 95.2149 1 23 -10.1000 95.6000 TC 25 1003 6 250
1967096S10096 1967 28 SI WA JACKIE:LAURA 1967-04-06 09:00:00 TS -10.2852 94.9230 main 1059 1059 P_____P__PP_P_ SH281967 -10.0500 94.8150 -1 -10.3474 94.9305 1003 -10.3425 94.9075 TC 20 -10.3628 94.9059 1 20 -10.2475 95.2200 TC 25 1003 6 248
1967096S10096 1967 28 SI WA JACKIE:LAURA 1967-04-06 10:00:00 TS -10.3276 94.8251 1003 bom main 1064 1064 P_____O__PO_P_ SH281967 -10.0666 94.7133 -1 -10.4000 94.8000 1003 -10.3970 94.8079 TC 20 -10.4000 94.8000 1 20 -10.2975 95.0864 TC 25 1003 7 248
1967096S10096 1967 28 SI WA JACKIE:LAURA 1967-04-06 12:00:00 TS -10.4125 94.6035 main 1084 1084 O_____P__OP_O_ jtwc_sh SH281967 -10.1000 94.5000 -1 -10.4977 94.5378 1002 -10.5000 94.6000 TC 20 -10.4775 94.5833 1 22 -10.4000 94.8000 TC 25 1003 7 251
1967096S10096 1967 28 SI WA JACKIE:LAURA 1967-04-06 15:00:00 TS -10.5229 94.2377 main 1114 1114 P_____P__PP_P_ SH281967 -10.1425 94.1650 -1 -10.6375 94.1583 1002 -10.6000 94.2649 TC 25 -10.6002 94.2458 1 26 -10.5576 94.3275 TC 25 1002 8 253
1967096S10096 1967 28 SI WA JACKIE:LAURA 1967-04-06 18:00:00 TS -10.6385 93.8642 main 1140 1140 O_____P__OP_O_ jtwc_sh SH281967 -10.2000 93.8000 -1 -10.7627 93.8079 1002 -10.7000 93.9000 TC 30 -10.7277 93.8932 1 30 -10.7000 93.9000 TC 25 1002 8 252
1967096S10096 1967 28 SI WA JACKIE:LAURA 1967-04-06 19:00:00 TS -10.6835 93.7443 1002 bom main 1160 1160 P_____O__PP_P_ SH281967 -10.2224 93.6750 -1 -10.8000 93.7000 1002 -10.7469 93.7724 TC 30 -10.7708 93.7724 1 31 -10.7389 93.8017 TC 25 1002 7 250
1967096S10096 1967 28 SI WA JACKIE:LAURA 1967-04-06 21:00:00 TS -10.7681 93.5112 main 1181 1181 P_____P__PP_P_ SH281967 -10.2774 93.4149 -1 -10.8675 93.5068 1002 -10.8500 93.5075 TC 32 -10.8570 93.5258 1 33 -10.8073 93.6424 TC 25 1002 7 250
1967096S10096 1967 28 SI WA JACKIE:LAURA 1967-04-06 22:00:00 TS -10.8128 93.3909 1002 bom main 1187 1187 P_____O__PO_P_ SH281967 -10.3120 93.2799 -1 -10.9000 93.4000 1002 -10.9024 93.3721 TC 33 -10.9000 93.4000 2 35 -10.8386 93.5686 TC 25 1002 8 251
1967096S10096 1967 28 SI WA JACKIE:LAURA 1967-04-07 00:00:00 TS -10.8929 93.1401 main 1213 1213 O_____P__OP_O_ jtwc_sh SH281967 -10.4000 93.0000 -1 -10.9667 93.1388 1001 -11.0000 93.1000 TC 35 -10.9833 93.1421 2 31 -10.9000 93.4000 TC 25 1002 8 253
1967096S10096 1967 28 SI WA JACKIE:LAURA 1967-04-07 01:00:00 TS -10.9305 93.0086 1001 bom main 1219 1219 P_____O__PP_P_ SH281967 -10.4525 92.8662 -1 -11.0000 93.0000 1001 -11.0364 92.9640 TC 32 -11.0250 93.0103 2 30 -10.9307 93.2838 TC 25 1001 8 254
1967096S10096 1967 28 SI WA JACKIE:LAURA 1967-04-07 03:00:00 TS -11.0049 92.7395 main 1247 1247 P_____P__PP_P_ SH281967 -10.5773 92.5874 -1 -11.0588 92.7333 1000 -11.1000 92.6924 TC 27 -11.1083 92.7426 2 26 -10.9925 93.0225 TC 27 1001 8 254
1967096S10096 1967 28 SI WA JACKIE:LAURA 1967-04-07 04:00:00 TS -11.0451 92.6022 1000 bom main 1253 1253 P_____O__PP_P_ SH281967 -10.6477 92.4369 -1 -11.1000 92.6000 1000 -11.1308 92.5587 TC 25 -11.1500 92.6074 2 25 -11.0254 92.8829 TC 28 1000 9 252
1967096S10096 1967 28 SI WA JACKIE:LAURA 1967-04-07 06:00:00 TS -11.1384 92.3242 main 1280 1280 O_____P__OP_O_ jtwc_sh SH281967 -10.8000 92.1000 -1 -11.2358 92.3334 999 -11.2000 92.3000 TC 20 -11.2333 92.3362 2 21 -11.1000 92.6000 TC 30 1000 9 250
1967096S10096 1967 28 SI WA JACKIE:LAURA 1967-04-07 07:00:00 TS -11.1893 92.1866 999 bom main 1296 1296 P_____O__PP_P_ SH281967 -10.8776 91.9062 -1 -11.3000 92.2000 999 -11.2469 92.1803 TC 19 -11.2750 92.2009 2 20 -11.1443 92.4667 TC 30 999 9 250
1967096S10096 1967 28 SI WA JACKIE:LAURA 1967-04-07 09:00:00 TS -11.2883 91.9097 main 1324 1324 P_____P__PP_P_ SH281967 -11.0425 91.4800 -1 -11.3702 91.9333 997 -11.3499 91.9500 TC 17 -11.3583 91.9324 2 16 -11.2424 92.2000 TC 32 998 9 250
1967096S10096 1967 28 SI WA JACKIE:LAURA 1967-04-07 10:00:00 TS -11.3383 91.7704 997 bom main 1331 1331 P_____O__PO_P_ SH281967 -11.1279 91.2550 -1 -11.4000 91.8000 997 -11.4024 91.8358 TC 16 -11.4000 91.8000 1 15 -11.2945 92.0667 TC 33 998 9 250
1967096S10096 1967 28 SI WA JACKIE:LAURA 1967-04-07 12:00:00 TS -11.4408 91.4900 main 1359 1359 O_____P__OP_O_ jtwc_sh SH281967 -11.3000 90.8000 -1 -11.4939 91.5287 996 -11.5000 91.6000 TC 15 -11.4753 91.5441 1 16 -11.4000 91.8000 TC 35 997 9 251
1967096S10096 1967 28 SI WA JACKIE:LAURA 1967-04-07 15:00:00 TS -11.5847 91.0602 main 1404 1404 P_____P__PP_P_ SH281967 -11.5574 90.1350 -1 -11.6519 91.1279 995 -11.6000 91.1999 TC 20 -11.5882 91.1667 1 19 -11.5575 91.3925 TC 37 996 9 251
1967096S10096 1967 28 SI WA JACKIE:LAURA 1967-04-07 16:00:00 TS -11.6314 90.9182 995 bom main 1417 1417 P_____O__PP_P_ SH281967 -11.6412 89.9175 -1 -11.7000 91.0000 995 -11.6309 91.0641 TC 21 -11.6272 91.0422 1 20 -11.6079 91.2588 TC 38 995 9 251
1967096S10096 1967 28 SI WA JACKIE:LAURA 1967-04-07 18:00:00 TS -11.7225 90.6411 main 1447 1447 O_____P__OP_O_ jtwc_sh SH281967 -11.8000 89.5000 -1 -11.7740 90.7518 993 -11.7000 90.8000 TC 25 -11.7094 90.7943 1 21 -11.7000 91.0000 TC 40 995 8 251
1967096S10096 1967 28 SI WA JACKIE:LAURA 1967-04-07 21:00:00 TS -11.8612 90.2529 main 1485 1485 P_____P__PP_P_ SH281967 -12.0149 88.9199 -1 -11.8688 90.4068 992 -11.8349 90.4499 TC 25 -11.8482 90.4237 1 24 -11.7999 90.6424 TC 42 993 8 250
1967096S10096 1967 28 SI WA JACKIE:LAURA 1967-04-07 22:00:00 TS -11.9094 90.1275 992 bom main 1499 1499 P_____O__PO_P_ SH281967 -12.0799 88.7399 -1 -11.9000 90.3000 992 -11.8866 90.3357 TC 25 -11.9000 90.3000 1 25 -11.8308 90.5278 TC 43 993 8 248
1967096S10096 1967 28 SI MM JACKIE:LAURA 1967-04-08 00:00:00 TS -12.0095 89.8795 main 1522 1522 O_____P__OP_O_ jtwc_sh SH281967 -12.2000 88.4000 -1 -11.9583 90.1066 990 -12.0000 90.1000 TC 25 -12.0082 90.0499 1 22 -11.9000 90.3000 TC 45 992 8 248
1967096S10096 1967 28 SI MM JACKIE:LAURA 1967-04-08 01:00:00 TS -12.0618 89.7490 990 bom main 1545 1545 P_____O__PP_P_ SH281967 -12.2504 88.2254 -1 -12.0000 90.0000 990 -12.0583 89.9697 TC 23 -12.0661 89.9249 1 21 -11.9390 90.1859 TC 45 991 8 247
1967096S10096 1967 28 SI MM JACKIE:LAURA 1967-04-08 03:00:00 TS -12.1769 89.4812 main 1568 1568 P_____P__PP_P_ SH281967 -12.3425 87.8974 -1 -12.1200 89.7388 988 -12.1850 89.7000 TC 20 -12.1894 89.6748 1 18 -12.0274 89.9574 TC 47 990 9 245
1967096S10096 1967 28 SI MM JACKIE:LAURA 1967-04-08 04:00:00 TS -12.2410 89.3478 988 bom main 1582 1582 P_____O__PP_P_ SH281967 -12.3896 87.7496 -1 -12.2000 89.6000 988 -12.2533 89.5642 TC 18 -12.2548 89.5497 1 17 -12.0787 89.8411 TC 48 989 9 241
1967096S10096 1967 28 SI MM JACKIE:LAURA 1967-04-08 06:00:00 TS -12.3851 89.0904 main 1614 1614 O_____P__OP_O_ jtwc_sh SH281967 -12.5000 87.5000 -1 -12.4025 89.3333 986 -12.4000 89.3000 TC 15 -12.3932 89.2997 1 14 -12.2000 89.6000 TC 50 988 9 239
1967096S10096 1967 28 SI MM JACKIE:LAURA 1967-04-08 07:00:00 TS -12.4624 88.9684 986 bom main 1629 1629 P_____O__PP_P_ SH281967 -12.5692 87.4047 -1 -12.5000 89.2000 986 -12.4776 89.1802 TC 14 -12.4661 89.1748 1 13 -12.2719 89.4698 TC 50 987 8 236
1967096S10096 1967 28 SI MM JACKIE:LAURA 1967-04-08 09:00:00 TS -12.6192 88.7327 main 1660 1660 P_____P__PP_P_ SH281967 -12.7274 87.2624 -1 -12.6369 88.9307 983 -12.6424 88.9499 TC 12 -12.6195 88.9249 1 11 -12.4350 89.2000 TC 52 985 8 235
1967096S10096 1967 28 SI MM JACKIE:LAURA 1967-04-08 10:00:00 TS -12.7008 88.6179 983 bom main 1675 1675 P_____O__PO_P_ SH281967 -12.8145 87.2061 -1 -12.7000 88.8000 983 -12.7278 88.8357 TC 11 -12.7000 88.8000 1 10 -12.5225 89.0642 TC 53 984 8 233
1967096S10096 1967 28 SI MM JACKIE:LAURA 1967-04-08 12:00:00 TS -12.8718 88.3905 main 1706 1706 O_____P__OP_O_ jtwc_sh SH281967 -13.0000 87.1000 -1 -12.8499 88.5629 981 -12.9000 88.6000 TC 10 -12.8714 88.5396 1 10 -12.7000 88.8000 TC 55 983 8 233
1967096S10096 1967 28 SI MM JACKIE:LAURA 1967-04-08 15:00:00 TS -13.1242 88.0475 main 1753 1753 P_____P__PP_P_ SH281967 -13.2473 86.9520 -1 -13.1062 88.2212 978 -13.1425 88.1999 TC 12 -13.1477 88.1487 1 12 -12.9424 88.4499 TC 60 980 8 233
1967096S10096 1967 28 SI MM JACKIE:LAURA 1967-04-08 16:00:00 TS -13.2133 87.9303 978 bom main 1768 1768 P_____O__PP_P_ SH281967 -13.3470 86.8881 -1 -13.2000 88.1000 978 -13.2254 88.0641 TC 13 -13.2425 88.0202 1 12 -13.0253 88.3357 TC 61 979 9 231
1967096S10096 1967 28 SI MM JACKIE:LAURA 1967-04-08 18:00:00 TS -13.4044 87.6862 main 1799 1799 O_____P__OP_O_ jtwc_sh SH281967 -13.6000 86.7000 -1 -13.3982 87.8351 976 -13.4000 87.8000 TC 15 -13.4329 87.7686 1 13 -13.2000 88.1000 TC 65 978 9 231
1967096S10096 1967 28 SI MM JACKIE:LAURA 1967-04-08 19:00:00 TS -13.5103 87.5565 976 bom main 1815 1815 P_____O__PP_P_ SH281967 -13.7632 86.5593 -1 -13.5000 87.7000 976 -13.4995 87.6750 TC 15 -13.5272 87.6464 1 13 -13.2996 87.9646 TC 65 977 10 229
1967096S10096 1967 28 SI MM JACKIE:LAURA 1967-04-08 21:00:00 TS -13.7342 87.2905 main 1854 1854 P_____P__PP_P_ SH281967 -14.1476 86.2101 -1 -13.7079 87.4254 973 -13.7074 87.4350 TC 15 -13.7114 87.4116 1 14 -13.5076 87.6851 TC 67 975 10 229
1967096S10096 1967 28 SI MM JACKIE:LAURA 1967-04-08 22:00:00 TS -13.8463 87.1594 973 bom main 1869 1869 P_____O__PO_P_ SH281967 -14.3596 86.0126 -1 -13.8000 87.3000 973 -13.8103 87.3200 TC 15 -13.8000 87.3000 1 15 -13.6104 87.5485 TC 68 974 10 229
1967096S10096 1967 28 SI MM JACKIE:LAURA 1967-04-09 00:00:00 TS -14.0564 86.9111 main 1916 1916 O_____P__OP_O_ jtwc_sh SH281967 -14.8000 85.6000 -1 -13.9388 87.0866 970 -14.0000 87.1000 TC 15 -13.9560 87.0909 1 15 -13.8000 87.3000 TC 70 973 9 229
1967096S10096 1967 28 SI MM JACKIE:LAURA 1967-04-09 01:00:00 TS -14.1525 86.7963 970 bom main 1931 1931 P_____O__PP_P_ SH281967 -15.0267 85.3928 -1 -14.0000 87.0000 970 -14.0754 86.9916 TC 15 -14.0310 86.9918 1 16 -13.8754 87.2020 TC 70 972 9 229
1967096S10096 1967 28 SI MM JACKIE:LAURA 1967-04-09 03:00:00 TS -14.3375 86.5829 main 1954 1954 P_____P__PP_P_ SH281967 -15.4876 84.9704 -1 -14.1254 86.8691 970 -14.2075 86.7849 TC 17 -14.1774 86.8026 1 17 -14.0074 87.0348 TC 72 972 8 228
1967096S10096 1967 28 SI MM JACKIE:LAURA 1967-04-09 04:00:00 TS -14.4286 86.4805 971 bom main 1970 1970 P_____O__PP_P_ SH281967 -15.7088 84.7663 -1 -14.2000 86.8000 971 -14.2696 86.6865 TC 18 -14.2497 86.7119 1 17 -14.0695 86.9581 TC 73 971 8 227
1967096S10096 1967 28 SI MM JACKIE:LAURA 1967-04-09 06:00:00 TS -14.6139 86.2774 main 2001 2001 O_____P__OP_O_ jtwc_sh SH281967 -16.1000 84.4000 -1 -14.4025 86.6055 972 -14.4000 86.5000 TC 20 -14.3948 86.5366 1 18 -14.2000 86.8000 TC 75 971 8 227
1967096S10096 1967 28 SI MM JACKIE:LAURA 1967-04-09 07:00:00 TS -14.7062 86.1774 973 bom main 2017 2017 P_____O__PP_P_ SH281967 -16.2586 84.2492 -1 -14.5000 86.5000 973 -14.4776 86.4109 TC 20 -14.4685 86.4512 1 18 -14.2776 86.7031 TC 74 971 8 227
1967096S10096 1967 28 SI MM JACKIE:LAURA 1967-04-09 09:00:00 TS -14.8789 85.9875 main 2048 2048 P_____P__PP_P_ SH281967 -16.5172 83.9970 -1 -14.6369 86.2974 974 -14.6424 86.2424 TC 20 -14.6207 86.2832 1 19 -14.4425 86.5000 TC 72 973 8 227
1967096S10096 1967 28 SI MM JACKIE:LAURA 1967-04-09 10:00:00 TS -14.9628 85.8966 975 bom main 2063 2063 P_____O__PO_P_ SH281967 -16.6228 83.8900 -1 -14.7000 86.2000 975 -14.7279 86.1612 TC 20 -14.7000 86.2000 1 20 -14.5279 86.3975 TC 71 973 7 226
1967096S10096 1967 28 SI MM JACKIE:LAURA 1967-04-09 12:00:00 TS -15.1313 85.7176 main 2086 2086 O_____P__OP_O_ jtwc_sh SH281967 -16.8000 83.7000 -1 -14.8500 86.0166 976 -14.9000 86.0000 TC 20 -14.8693 86.0067 1 20 -14.7000 86.2000 TC 70 975 7 226
1967096S10096 1967 28 SI MM JACKIE:LAURA 1967-04-09 15:00:00 TS -15.3806 85.4550 main 2125 2125 P_____P__PP_P_ SH281967 -17.0450 83.4124 -1 -15.1062 85.7729 978 -15.1425 85.7424 TC 20 -15.1359 85.7227 1 20 -14.9424 85.9424 TC 67 977 7 225
1967096S10096 1967 28 SI MM JACKIE:LAURA 1967-04-09 16:00:00 TS -15.4634 85.3729 979 bom main 2141 2141 P_____O__PP_P_ SH281967 -17.1066 83.3320 -1 -15.2000 85.7000 979 -15.2254 85.6587 TC 20 -15.2276 85.6328 1 20 -15.0254 85.8611 TC 66 977 7 222
1967096S10096 1967 28 SI MM JACKIE:LAURA 1967-04-09 18:00:00 TS -15.6304 85.2197 main 2164 2164 O_____P__OP_O_ jtwc_sh SH281967 -17.2000 83.2000 -1 -15.3982 85.5732 980 -15.4000 85.5000 TC 20 -15.4147 85.4650 1 20 -15.2000 85.7000 TC 65 979 7 222
1967096S10096 1967 28 SI MM JACKIE:LAURA 1967-04-09 19:00:00 TS -15.7152 85.1408 981 bom main 2179 2179 P_____O__PP_P_ SH281967 -17.2311 83.1442 -1 -15.5000 85.5000 981 -15.4943 85.4198 TC 20 -15.5098 85.3887 1 20 -15.2969 85.6088 TC 63 979 7 221
1967096S10096 1967 28 SI MM JACKIE:LAURA 1967-04-09 21:00:00 TS -15.8861 84.9858 main 2203 2203 P_____P__PP_P_ SH281967 -17.2650 83.0624 -1 -15.7079 85.2975 982 -15.6925 85.2700 TC 20 -15.7026 85.2554 1 20 -15.5000 85.4276 TC 60 981 7 221
1967096S10096 1967 28 SI MM JACKIE:LAURA 1967-04-09 22:00:00 TS -15.9702 84.9170 983 bom main 2218 2218 P_____O__PO_P_ SH281967 -17.2750 83.0345 -1 -15.8000 85.2000 983 -15.7946 85.2042 TC 20 -15.8000 85.2000 1 20 -15.6025 85.3430 TC 58 981 6 215
1967096S10096 1967 28 SI MM JACKIE:LAURA 1967-04-10 00:00:00 TS -16.1306 84.8087 main 2234 2234 O_____P__OP_O_ jtwc_sh SH281967 -17.3000 83.0000 -1 -15.9309 85.0454 984 -16.0000 85.1000 TC 20 -15.9837 85.1155 1 23 -15.8000 85.2000 TC 55 983 6 210
1967096S10096 1967 28 SI MM JACKIE:LAURA 1967-04-10 01:00:00 TS -16.2082 84.7717 985 bom main 2241 2241 P_____O__PP_P_ SH281967 -17.3066 82.9886 -1 -16.0000 85.0000 985 -16.1000 85.0635 TC 22 -16.0764 85.0840 1 25 -15.8838 85.1442 TC 55 983 5 196
1967096S10096 1967 28 SI MM JACKIE:LAURA 1967-04-10 03:00:00 TS -16.3738 84.7326 main 2265 2265 P_____P__PP_P_ SH281967 -17.3325 82.9850 -1 -16.1946 84.9891 985 -16.3000 85.0199 TC 27 -16.2654 85.0393 1 28 -16.0425 85.0624 TC 55 984 5 188
1967096S10096 1967 28 SI MM JACKIE:LAURA 1967-04-10 04:00:00 TS -16.4619 84.7243 985 bom main 2273 2273 P_____O__PP_P_ SH281967 -17.3647 82.9891 -1 -16.3000 85.0000 985 -16.4000 85.0091 TC 29 -16.3623 85.0246 1 30 -16.1229 85.0345 TC 55 984 6 181
1967096S10096 1967 28 SI MM JACKIE:LAURA 1967-04-10 06:00:00 TS -16.6507 84.7153 main 2289 2289 O_____P__OP_O_ jtwc_sh SH281967 -17.5000 83.0000 -1 -16.4921 85.0000 985 -16.6000 85.0000 TC 35 -16.5628 85.0071 1 33 -16.3000 85.0000 TC 55 985 6 0
1967096S10096 1967 28 SI MM JACKIE:LAURA 1967-04-10 07:00:00 TS -16.7554 84.7077 985 bom main 2297 2297 P_____O__PP_P_ SH281967 -17.6184 82.9896 -1 -16.6000 85.0000 985 -16.6921 84.9943 TC 35 -16.6671 85.0029 1 35 -16.4026 84.9885 TC 55 985 7 0
1967096S10096 1967 28 SI MM JACKIE:LAURA 1967-04-10 09:00:00 TS -16.9888 84.6996 main 2313 2313 P_____P__PP_P_ SH281967 -17.9325 82.9703 -1 -16.8602 85.0000 985 -16.8775 84.9925 TC 37 -16.8853 85.0000 1 38 -16.6275 84.9849 TC 55 985 7 183
1967096S10096 1967 28 SI MM JACKIE:LAURA 1967-04-10 10:00:00 TS -17.1152 84.6990 985 bom main 2321 2321 P_____O__PO_P_ SH281967 -18.1153 82.9687 -1 -17.0000 85.0000 985 -16.9763 84.9945 TC 38 -17.0000 85.0000 2 40 -16.7479 84.9891 TC 55 985 8 182
1967096S10096 1967 28 SI MM JACKIE:LAURA 1967-04-10 12:00:00 TS -17.3822 84.6993 main 2345 2345 O_____P__OP_O_ jtwc_sh SH281967 -18.5000 83.0000 -1 -17.2667 85.0000 985 -17.2000 85.0000 TC 40 -17.2490 84.9627 2 37 -17.0000 85.0000 TC 55 985 9 178
1967096S10096 1967 28 SI MM JACKIE:LAURA 1967-04-10 15:00:00 TS -17.8215 84.7122 main 2378 2378 P_____P__PP_P_ SH281967 -19.0799 83.1399 -1 -17.6667 85.0000 985 -17.6425 84.9925 TC 35 -17.6479 84.9187 2 33 -17.3925 85.0000 TC 55 985 9 177
1967096S10096 1967 28 SI MM JACKIE:LAURA 1967-04-10 18:00:00 TS -18.2610 84.7587 main 2413 2413 O_____P__OP_O_ jtwc_sh SH281967 -19.6000 83.4000 -1 -18.0667 85.0000 985 -18.1000 85.0000 TC 30 -18.0605 84.9109 2 29 -17.8000 85.0000 TC 55 985 9 173
1967096S10096 1967 28 SI MM JACKIE:LAURA 1967-04-10 19:00:00 TS -18.3924 84.7788 985 bom main 2421 2421 P_____O__PP_P_ SH281967 -19.7286 83.5080 -1 -18.2000 85.0000 985 -18.2281 85.0005 TC 29 -18.1979 84.9207 2 28 -17.9359 84.9922 TC 55 985 8 169
1967096S10096 1967 28 SI MM JACKIE:LAURA 1967-04-10 21:00:00 TS -18.6421 84.8329 main 2438 2438 P_____P__PP_P_ SH281967 -19.9375 83.7627 -1 -18.4695 84.9915 985 -18.4649 85.0127 TC 27 -18.4684 84.9643 2 26 -18.2075 84.9776 TC 55 985 8 167
1967096S10096 1967 28 SI MM JACKIE:LAURA 1967-04-10 22:00:00 TS -18.7615 84.8710 985 bom main 2449 2449 P_____O__PO_P_ SH281967 -20.0272 83.9039 -1 -18.6000 85.0000 985 -18.5775 85.0298 TC 26 -18.6000 85.0000 1 25 -18.3412 84.9764 TC 55 985 8 159
1967096S10096 1967 28 SI MM JACKIE:LAURA 1967-04-11 00:00:00 TS -18.9913 84.9741 main 2459 2459 O_____P__OP_O_ jtwc_sh SH281967 -20.2000 84.2000 -1 -18.8431 85.0524 985 -18.8000 85.1000 TC 25 -18.8394 85.0939 1 25 -18.6000 85.0000 TC 55 985 8 152
1967096S10096 1967 28 SI MM JACKIE:LAURA 1967-04-11 03:00:00 TS -19.3290 85.1957 main 2472 2472 P_____P__PP_P_ SH281967 -20.4550 84.6505 -1 -19.1857 85.2216 985 -19.1500 85.3125 TC 25 -19.1859 85.2976 1 25 -18.9499 85.0902 TC 55 985 8 147
1967096S10096 1967 28 SI MM JACKIE:LAURA 1967-04-11 04:00:00 TS -19.4427 85.2858 985 bom main 2474 2474 P_____O__PP_P_ SH281967 -20.5526 84.8029 -1 -19.3000 85.3000 985 -19.2667 85.4037 TC 25 -19.2998 85.3804 1 25 -19.0641 85.1444 TC 55 985 9 142
1967096S10096 1967 28 SI MM JACKIE:LAURA 1967-04-11 06:00:00 TS -19.6802 85.4839 main 2487 2487 O_____P__OP_O_ jtwc_sh SH281967 -20.8000 85.1000 -1 -19.5393 85.4806 985 -19.5000 85.6000 TC 25 -19.5282 85.5654 1 25 -19.3000 85.3000 TC 55 985 10 141
1967096S10096 1967 28 SI MM JACKIE:LAURA 1967-04-11 09:00:00 TS -20.0696 85.8172 main 2504 2498 P_____P__PP_P_ SH281967 -21.3549 85.5149 -1 -19.9058 85.8293 985 -19.8425 85.8926 TC 27 -19.8790 85.8845 1 25 -19.7002 85.6698 TC 55 985 10 141
1967096S10096 1967 28 SI MM JACKIE:LAURA 1967-04-11 10:00:00 TS -20.2053 85.9362 main 2507 2501 P_____P__PO_P_ SH281967 -21.5673 85.6466 -1 -20.0301 85.9604 985 -19.9588 85.9947 TC 28 -20.0000 86.0000 1 25 -19.8359 85.8139 TC 55 985 11 141
1967096S10096 1967 28 SI MM JACKIE:LAURA 1967-04-11 12:00:00 TS -20.4777 86.1669 main 2516 2516 O_____P__OP_O_ jtwc_sh SH281967 -22.0000 85.9000 -1 -20.2820 86.2360 985 -20.2000 86.2000 TC 30 -20.2275 86.1668 1 29 -20.1000 86.1000 TC 55 986 10 143
1967096S10096 1967 28 SI MM JACKIE:LAURA 1967-04-11 15:00:00 TS -20.8927 86.4924 main 2536 2536 P_____P__PP_P_ SH281967 -22.6674 86.2648 -1 -20.6686 86.6612 985 -20.5846 86.4481 TC 37 -20.5810 86.4529 1 35 -20.4498 86.4504 TC 55 986 10 143
1967096S10096 1967 28 SI MM JACKIE:LAURA 1967-04-11 16:00:00 TS -21.0316 86.6067 986 bom main 2539 2539 P_____O__PP_P_ SH281967 -22.8710 86.3798 -1 -20.8000 86.8000 986 -20.7196 86.5453 TC 39 -20.7061 86.5667 1 37 -20.5640 86.5645 TC 55 986 11 140
1967096S10096 1967 28 SI MM JACKIE:LAURA 1967-04-11 18:00:00 TS -21.3056 86.8573 main 2551 2549 O_____P__OP_O_ jtwc_sh SH281967 -23.2000 86.6000 -1 -21.0661 87.0662 986 -21.0000 86.8000 TC 45 -20.9728 86.8352 1 41 -20.8000 86.8000 TC 55 986 11 138
1967096S10096 1967 28 SI MM JACKIE:LAURA 1967-04-11 19:00:00 TS -21.4312 86.9861 986 bom main 2549 2545 P_____O__PP_P_ SH281967 -23.3013 86.7061 -1 -21.2000 87.2000 986 -21.1336 86.9561 TC 45 -21.1165 86.9945 1 43 -20.9195 86.9070 TC 55 986 11 134
1967096S10096 1967 28 SI MM JACKIE:LAURA 1967-04-11 21:00:00 TS -21.6801 87.2774 main 2545 2537 P_____P__PP_P_ SH281967 -23.4174 86.9081 -1 -21.4666 87.4667 986 -21.4119 87.3386 TC 47 -21.4292 87.3745 1 47 -21.1694 87.1335 TC 55 986 11 131
1967096S10096 1967 28 SI MM JACKIE:LAURA 1967-04-11 22:00:00 TS -21.8092 87.4458 986 bom main 2544 2526 P_____O__PO_P_ SH281967 -23.4488 87.0059 -1 -21.6000 87.6000 986 -21.5623 87.5666 TC 48 -21.6000 87.6000 2 50 -21.3036 87.2656 TC 55 986 13 128
1967096S10096 1967 28 SI MM JACKIE:LAURA 1967-04-12 00:00:00 TS -22.0871 87.8343 main 2533 2525 O_____P__OP_O_ jtwc_sh SH281967 -23.5000 87.2000 -1 -21.8426 87.8040 986 -21.9000 88.1000 TC 50 -21.9669 88.1358 2 44 -21.6000 87.6000 TC 55 986 15 127
1967096S10096 1967 28 SI MM JACKIE:LAURA 1967-04-12 01:00:00 TS -22.2463 88.0695 987 bom main 2517 2508 P_____O__PP_P_ SH281967 -23.5447 87.2923 -1 -22.0000 88.0000 987 -22.0886 88.3966 TC 46 -22.1634 88.4390 2 42 -21.7554 87.7953 TC 54 986 18 125
1967096S10096 1967 28 SI MM JACKIE:LAURA 1967-04-12 03:00:00 TS -22.6090 88.6526 main 2500 2491 P_____P__PP_P_ SH281967 -23.6348 87.4778 -1 -22.4427 88.7564 987 -22.5049 89.0681 TC 40 -22.5791 89.1042 2 37 -22.0965 88.2666 TC 52 987 20 124
1967096S10096 1967 28 SI MM JACKIE:LAURA 1967-04-12 04:00:00 TS -22.8070 88.9791 988 bom main 2481 2412 P_____O__PP_P_ SH281967 -23.6840 87.5766 -1 -22.7000 89.2000 988 -22.7290 89.4335 TC 36 -22.7968 89.4615 2 35 -22.2844 88.5458 TC 51 987 22 124
1967096S10096 1967 28 SI MM JACKIE:LAURA 1967-04-12 06:00:00 TS -23.2263 89.6569 main 2402 2377 O_____P__OP_O_ jtwc_sh SH281967 -23.8000 87.8000 -1 -23.2354 89.9845 988 -23.2000 90.2000 TC 30 -23.2486 90.2135 2 29 -22.7000 89.2000 TC 50 988 23 124
1967096S10096 1967 28 SI WA JACKIE:LAURA 1967-04-12 07:00:00 TS -23.4406 90.0071 989 bom main 2367 2288 P_____O__PP_P_ SH281967 -23.8666 87.9225 -1 -23.5000 90.4000 989 -23.4384 90.5832 TC 28 -23.4814 90.6034 2 27 -22.9277 89.5837 TC 49 988 24 123
1967096S10096 1967 28 SI WA JACKIE:LAURA 1967-04-12 09:00:00 TS -23.8785 90.7544 main 2276 2242 P_____P__PP_P_ SH281967 -24.0197 88.1978 -1 -23.9703 91.3343 989 -23.9346 91.3782 TC 25 -23.9577 91.3991 2 22 -23.4211 90.4469 TC 47 989 25 123
1967096S10096 1967 28 SI WA JACKIE:LAURA 1967-04-12 10:00:00 TS -24.1031 91.1382 990 bom main 2242 2164 P_____O__PO_P_ SH281967 -24.1064 88.3524 -1 -24.2000 91.8000 990 -24.1887 91.7844 TC 23 -24.2000 91.8000 1 20 -23.6792 90.9023 TC 46 989 25 123
1967096S10096 1967 28 SI WA JACKIE:LAURA 1967-04-12 12:00:00 TS -24.5607 91.8907 main 2152 2033 O_____P__OP_O_ jtwc_sh SH281967 -24.3000 88.7000 -1 -24.6820 92.6124 990 -24.7000 92.6000 TC 20 -24.6814 92.5642 1 19 -24.2000 91.8000 TC 45 990 26 123
1967096S10096 1967 28 SI WA JACKIE:LAURA 1967-04-12 15:00:00 TS -25.2773 93.1316 main 2021 1969 P_____P__PP_P_ SH281967 -24.4698 88.8796 -1 -25.4389 93.7244 991 -25.4490 93.8015 TC 17 -25.4295 93.7479 1 17 -24.9482 92.9595 TC 45 991 28 122
1967096S10096 1967 28 SI WA JACKIE:LAURA 1967-04-12 16:00:00 TS -25.5454 93.6616 992 bom main 1959 1873 P_____O__PP_P_ SH281967 -24.5823 89.0802 -1 -25.7000 94.1000 992 -25.6991 94.2014 TC 16 -25.6830 94.1501 1 17 -25.1984 93.3357 TC 45 991 31 121
1967096S10096 1967 28 SI WA JACKIE:LAURA 1967-04-12 18:00:00 TS -26.0771 94.6164 main 1862 1811 O_____P__OP_O_ jtwc_sh SH281967 -25.0000 90.0000 -1 -26.2396 94.8902 992 -26.2000 95.0000 TC 15 -26.1922 94.9623 1 16 -25.7000 94.1000 TC 45 992 33 121
1967096S10096 1967 28 SI WA JACKIE:LAURA 1967-04-12 19:00:00 TS -26.3758 95.2170 993 bom main 1800 1718 P_____O__PP_P_ SH281967 -25.3872 90.9977 -1 -26.5000 95.3000 993 -26.4520 95.3982 TC 15 -26.4464 95.3710 1 16 -25.9522 94.5033 TC 44 992 30 122
1967096S10096 1967 28 SI WA JACKIE:LAURA 1967-04-12 21:00:00 TS -26.8736 96.0439 main 1718 1678 P_____P__PP_P_ SH281967 -26.3358 93.5788 -1 -26.9639 96.1539 993 -26.9563 96.1940 TC 15 -26.9510 96.1906 1 15 -26.4566 95.3288 TC 42 993 27 124
1967096S10096 1967 28 SI WA JACKIE:LAURA 1967-04-12 22:00:00 TS -27.1214 96.4622 994 bom main 1668 1599 P_____O__PO_P_ SH281967 -26.8278 94.9634 -1 -27.2000 96.6000 994 -27.2068 96.5935 TC 15 -27.2000 96.6000 1 15 -26.7071 95.7491 TC 41 993 27 124
1967096S10096 1967 28 SI WA JACKIE:LAURA 1967-04-13 00:00:00 TS -27.6218 97.3116 main 1589 1551 O_____P__OP_O_ jtwc_sh SH291967 -27.7000 97.4000 15 -1 -27.7437 97.5436 994 -27.7000 97.4000 TC 15 -27.6871 97.4259 1 18 -27.2000 96.6000 TC 40 994 27 123
1967096S10096 1967 28 SI WA JACKIE:LAURA 1967-04-13 01:00:00 TS -27.8652 97.7390 995 bom main 1551 1476 P_____O__PP_P_ SH291967 -27.9981 98.1075 17 -1 -28.0000 98.0000 995 -27.9412 97.8143 TC 17 -27.9287 97.8405 1 20 -27.4387 97.0362 TC 40 994 26 122
1967096S10096 1967 28 SI WA JACKIE:LAURA 1967-04-13 03:00:00 TS -28.3266 98.5791 main 1467 1440 P_____P__PP_P_ SH291967 -28.4862 99.0381 22 -1 -28.4026 98.8116 995 -28.4142 98.6513 TC 22 -28.4068 98.6697 1 23 -27.9071 97.9163 TC 40 994 26 122
1967096S10096 1967 28 SI WA JACKIE:LAURA 1967-04-13 04:00:00 TS -28.5533 98.9943 995 bom main 1431 1361 P_____O__PP_P_ SH291967 -28.6972 99.3511 24 -1 -28.6000 99.2000 995 -28.6460 99.0703 TC 24 -28.6428 99.0830 1 25 -28.1384 98.3528 TC 40 994 26 122
1967096S10096 1967 28 SI WA JACKIE:LAURA 1967-04-13 06:00:00 TS -29.0114 99.8186 main 1361 1326 O_____P__OP_O_ jtwc_sh SH291967 -29.1000 99.9000 30 -1 -29.0611 100.008 995 -29.1000 99.9000 TC 30 -29.1073 99.9035 1 28 -28.6000 99.2000 TC 40 995 26 123
1967096S10096 1967 28 SI WA JACKIE:LAURA 1967-04-13 07:00:00 TS -29.2406 100.223 995 bom main 1326 1270 P_____O__PP_P_ SH291967 -29.3245 100.314 30 -1 -29.3000 100.400 995 -29.3245 100.314 TC 30 -29.3353 100.309 1 30 -28.8377 99.6039 TC 40 995 25 123
1967096S10096 1967 28 SI WA JACKIE:LAURA 1967-04-13 09:00:00 TS -29.6917 101.009 main 1263 1238 P_____P__PP_P_ SH291967 -29.7643 101.131 32 -1 -29.7715 101.140 995 -29.7643 101.131 TC 32 -29.7819 101.108 1 33 -29.3136 100.381 TC 40 995 24 123
1967096S10096 1967 28 SI WA JACKIE:LAURA 1967-04-13 10:00:00 TS -29.9122 101.392 995 bom main 1232 1182 P_____O__PO_P_ SH291967 -29.9794 101.530 33 -1 -30.0000 101.500 995 -29.9794 101.530 TC 33 -30.0000 101.500 2 35 -29.5479 100.759 TC 40 995 23 123
1967096S10096 1967 28 SI WA JACKIE:LAURA 1967-04-13 12:00:00 TS -30.3359 102.139 main 1182 1107 O_____P__OP_O_ jtwc_sh SH291967 -30.4000 102.300 35 0 -30.4198 102.234 995 -30.4000 102.300 TC 35 -30.4123 102.237 2 33 -30.0000 101.500 TC 40 995 23 123
1967096S10096 1967 28 SI WA JACKIE:LAURA 1967-04-13 15:00:00 TS -30.9390 103.215 main 1107 1085 P_____P__PP_P_ SH291967 -31.0055 103.352 30 -1 -31.0055 103.334 995 -31.0055 103.352 TC 30 -31.0085 103.307 2 30 -30.6139 102.609 TC 40 995 22 123
1967096S10096 1967 28 SI WA JACKIE:LAURA 1967-04-13 16:00:00 TS -31.1365 103.569 995 bom main 1076 1035 P_____O__PP_P_ SH291967 -31.2037 103.695 28 -1 -31.2000 103.700 995 -31.2037 103.695 TC 28 -31.2044 103.662 2 30 -30.8099 102.974 TC 40 995 22 123
1967096S10096 1967 28 SI WA JACKIE:LAURA 1967-04-13 18:00:00 TS -31.5327 104.285 main 1026 994 O_____P__OP_O_ jtwc_sh SH291967 -31.6000 104.400 25 -1 -31.5998 104.434 995 -31.6000 104.400 TC 25 -31.5963 104.378 2 28 -31.2000 103.700 TC 40 995 22 123
1967096S10096 1967 28 SI WA JACKIE:LAURA 1967-04-13 19:00:00 TS -31.7297 104.650 995 bom main 985 919 P_____O__PP_P_ SH291967 -31.7968 104.776 25 -1 -31.8000 104.800 995 -31.7968 104.776 TC 25 -31.7938 104.745 2 27 -31.3965 104.057 TC 40 995 22 122
1967096S10096 1967 28 SI WA JACKIE:LAURA 1967-04-13 21:00:00 TS -32.1253 105.395 main 910 877 P_____P__PP_P_ SH291967 -32.1913 105.557 25 -1 -32.1998 105.534 995 -32.1913 105.557 TC 25 -32.1950 105.504 2 25 -31.7908 104.772 TC 40 995 23 122
1967096S10096 1967 28 SI WA JACKIE:LAURA 1967-04-13 22:00:00 TS -32.3258 105.779 995 bom main 868 795 P_____O__PO_P_ SH291967 -32.3910 105.962 25 -1 -32.4000 105.900 995 -32.3910 105.962 TC 25 -32.4000 105.900 1 25 -31.9905 105.137 TC 40 995 23 121
1967096S10096 1967 28 SI WA JACKIE:LAURA 1967-04-14 00:00:00 TS -32.7363 106.576 main 786 755 O_____P__OP_O_ jtwc_sh SH291967 -32.8000 106.800 25 -1 -32.7915 106.603 995 -32.8000 106.800 TC 25 -32.8262 106.756 1 26 -32.4000 105.900 TC 40 995 24 121
1967096S10096 1967 28 SI WA JACKIE:LAURA 1967-04-14 01:00:00 TS -32.9497 106.999 995 bom main 746 666 P_____O__PP_P_ SH291967 -33.0103 107.226 25 -1 -33.0000 107.000 995 -33.0103 107.226 TC 25 -33.0423 107.200 1 27 -32.6103 106.301 TC 40 995 26 120
1967096S10096 1967 28 SI WA JACKIE:LAURA 1967-04-14 03:00:00 TS -33.3927 107.906 main 657 618 P_____P__PP_P_ SH291967 -33.4410 108.107 27 -1 -33.4612 107.978 995 -33.4410 108.107 TC 27 -33.4786 108.115 1 29 -33.0411 107.142 TC 40 995 27 120
1967096S10096 1967 28 SI WA JACKIE:LAURA 1967-04-14 04:00:00 TS -33.6180 108.379 995 bom main 609 524 P_____O__PP_P_ SH291967 -33.6598 108.562 28 -1 -33.7000 108.500 995 -33.6598 108.562 TC 28 -33.6977 108.584 1 30 -33.2599 107.582 TC 40 995 27 119
1967096S10096 1967 28 SI WA JACKIE:LAURA 1967-04-14 06:00:00 TS -34.0683 109.340 main 523 486 O_____P__OP_O_ jtwc_sh SH291967 -34.1000 109.500 30 -1 -34.1742 109.500 995 -34.1000 109.500 TC 30 -34.1357 109.541 1 31 -33.7000 108.500 TC 40 995 27 119
1967096S10096 1967 28 SI WA JACKIE:LAURA 1967-04-14 07:00:00 TS -34.2878 109.827 996 bom main 477 397 P_____O__PP_P_ SH291967 -34.3187 109.984 30 -1 -34.4000 110.000 996 -34.3187 109.984 TC 30 -34.3538 110.027 1 32 -33.9189 108.978 TC 39 995 28 118
1967096S10096 1967 28 SI WA JACKIE:LAURA 1967-04-14 09:00:00 TS -34.7161 110.821 main 390 358 P_____P__PP_P_ SH291967 -34.7565 110.979 32 -1 -34.8056 111.001 996 -34.7565 110.979 TC 32 -34.7863 111.007 1 34 -34.3567 109.971 TC 37 995 28 117
1967096S10096 1967 28 SI WA JACKIE:LAURA 1967-04-14 10:00:00 TS -34.9264 111.323 996 bom main 349 282 P_____O__PO_P_ SH291967 -34.9736 111.485 33 -1 -35.0000 111.500 996 -34.9736 111.485 TC 33 -35.0000 111.500 2 35 -34.5738 110.479 TC 36 995 28 117
1967096S10096 1967 28 SI WA JACKIE:LAURA 1967-04-14 12:00:00 TS -35.3423 112.330 main 273 207 O_____P__OP_O_ jtwc_sh SH291967 -35.4000 112.500 35 0 -35.3990 112.501 996 -35.4000 112.500 TC 35 -35.4210 112.487 2 35 -35.0000 111.500 TC 35 996 27 117
1967096S10096 1967 28 SI WA JACKIE:LAURA 1967-04-14 15:00:00 TS -35.9413 113.814 main 204 200 P_____P__PP_P_ SH291967 -36.0132 114.003 35 0 -35.9994 114.001 996 -36.0132 114.003 TC 35 -36.0367 113.975 2 35 -35.6056 113.003 TC 35 996 27 116
1967096S10096 1967 28 SI WA JACKIE:LAURA 1967-04-14 16:00:00 TS -36.1325 114.295 996 bom main 202 199 P_____O__PP_P_ SH291967 -36.2114 114.502 35 0 -36.2000 114.500 996 -36.2114 114.502 TC 35 -36.2378 114.473 2 35 -35.8038 113.502 TC 35 996 26 116
1967096S10096 1967 28 SI WA JACKIE:LAURA 1967-04-14 18:00:00 TS -36.5185 115.272 main 194 189 O_____P__OP_O_ jtwc_sh SH291967 -36.6000 115.500 35 0 -36.5995 115.501 996 -36.6000 115.500 TC 35 -36.6338 115.474 2 35 -36.2000 114.500 TC 35 996 26 116
1967096S10096 1967 28 SI WA JACKIE:LAURA 1967-04-14 19:00:00 TS -36.6985 115.728 996 bom main 195 192 ______O___P_P_ SH291967 -1 -36.8000 116.000 996 TC -36.8286 115.977 2 35 -36.3997 114.998 TC 35 996 26 116
1967096S10096 1967 28 SI WA JACKIE:LAURA 1967-04-14 21:00:00 TS -37.1019 116.746 main 223 223 ______P___P_P_ SH291967 -1 -37.1996 117.001 996 TC -37.2117 116.990 2 35 -36.8012 115.995 TC 35 996 27 116
1967096S10096 1967 28 SI WA JACKIE:LAURA 1967-04-14 22:00:00 TS -37.3006 117.248 997 bom main 246 246 ______O___O_P_ SH291967 -1 -37.4000 117.500 997 TC -37.4000 117.500 2 35 -37.0019 116.495 TC 35 996 27 117
1967096S10096 1967 28 SI WA JACKIE:LAURA 1967-04-15 00:00:00 TS -37.7005 118.249 main 290 290 ______P_____O_ -1 -37.8010 118.499 997 2 -37.4000 117.500 TC 35 997 31 117
1967096S10096 1967 28 SI WA JACKIE:LAURA 1967-04-15 01:00:00 NR -38.0000 119.000 997 bom main 335 ______O_______ -1 -38.0000 119.000 997 2 TC 40 117

About IBTrACS Database

This database is a web-friendly format of International Best Track Archive for Climate Stewardship (IBTrACS), a global best track data archive curated by NOAA dating back to 1842.

Updated: 2021-10-25